Time;durP1;ratioP1;P1;durP2;ratioP2;P2;SDS_P1;SDS_P2;PMS_P1;PMS_P2;Temp;Humidity;BMP_temperature;BMP_pressure;BME280_temperature;BME280_humidity;BME280_pressure;Samples;Min_cycle;Max_cycle;Signal;HPM_P1;HPM_P2
2022/04/15 00:00:22;;;;;;;16.4;13;;;;;;;13.08;59.01758;95570.29;;;;
2022/04/15 00:01:23;;;;;;;16.4;13;;;;;;;13.08;59.01758;95570.29;;;;
2022/04/15 00:02:24;;;;;;;16.4;13;;;;;;;13.08;59.01758;95570.29;;;;
2022/04/15 00:03:30;;;;;;;16.4;13;;;;;;;13.08;59.01758;95570.29;;;;
2022/04/15 00:04:31;;;;;;;16.4;13;;;;;;;13.08;59.01758;95570.29;;;;
2022/04/15 00:05:36;;;;;;;15.05;12.15;;;;;;;13.23;59.44922;95565.26;;;;
2022/04/15 00:06:37;;;;;;;15.05;12.15;;;;;;;13.23;59.44922;95565.26;;;;
2022/04/15 00:07:37;;;;;;;15.05;12.15;;;;;;;13.23;59.44922;95565.26;;;;
2022/04/15 00:08:38;;;;;;;15.05;12.15;;;;;;;13.23;59.44922;95565.26;;;;
2022/04/15 00:09:39;;;;;;;15.05;12.15;;;;;;;13.23;59.44922;95565.26;;;;
2022/04/15 00:10:39;;;;;;;15.05;12.15;;;;;;;13.23;59.44922;95565.26;;;;
2022/04/15 00:11:41;;;;;;;15.05;12.15;;;;;;;13.23;59.44922;95565.26;;;;
2022/04/15 00:12:41;;;;;;;15.05;12.15;;;;;;;13.23;59.44922;95565.26;;;;
2022/04/15 00:13:42;;;;;;;15.05;12.15;;;;;;;13.23;59.44922;95565.26;;;;
2022/04/15 00:14:43;;;;;;;15.05;12.15;;;;;;;13.23;59.44922;95565.26;;;;
2022/04/15 00:15:44;;;;;;;15.05;12.15;;;;;;;13.23;59.44922;95565.26;;;;
2022/04/15 00:16:45;;;;;;;13.7;12.3;;;;;;;13.28;59.91113;95586.5;;;;
2022/04/15 00:17:46;;;;;;;13.7;12.3;;;;;;;13.28;59.91113;95586.5;;;;
2022/04/15 00:18:47;;;;;;;13.7;12.3;;;;;;;13.28;59.91113;95586.5;;;;
2022/04/15 00:19:47;;;;;;;13.7;12.3;;;;;;;13.28;59.91113;95586.5;;;;
2022/04/15 00:20:48;;;;;;;13.7;12.3;;;;;;;13.28;59.91113;95586.5;;;;
2022/04/15 00:21:48;;;;;;;13.7;12.3;;;;;;;13.28;59.91113;95586.5;;;;
2022/04/15 00:22:50;;;;;;;13.7;12.3;;;;;;;13.28;59.91113;95586.5;;;;
2022/04/15 00:23:55;;;;;;;13.7;12.3;;;;;;;13.28;59.91113;95586.5;;;;
2022/04/15 00:24:55;;;;;;;13.7;12.3;;;;;;;13.28;59.91113;95586.5;;;;
2022/04/15 00:25:56;;;;;;;13.7;12.3;;;;;;;13.28;59.91113;95586.5;;;;
2022/04/15 00:26:57;;;;;;;15.85;14.15;;;;;;;13.26;60.6748;95585.51;;;;
2022/04/15 00:27:58;;;;;;;15.85;14.15;;;;;;;13.26;60.6748;95585.51;;;;
2022/04/15 00:28:59;;;;;;;15.85;14.15;;;;;;;13.26;60.6748;95585.51;;;;
2022/04/15 00:29:59;;;;;;;15.85;14.15;;;;;;;13.26;60.6748;95585.51;;;;
2022/04/15 00:31:00;;;;;;;15.85;14.15;;;;;;;13.26;60.6748;95585.51;;;;
2022/04/15 00:32:00;;;;;;;15.85;14.15;;;;;;;13.26;60.6748;95585.51;;;;
2022/04/15 00:33:01;;;;;;;15.85;14.15;;;;;;;13.26;60.6748;95585.51;;;;
2022/04/15 00:34:02;;;;;;;15.85;14.15;;;;;;;13.26;60.6748;95585.51;;;;
2022/04/15 00:35:03;;;;;;;15.85;14.15;;;;;;;13.26;60.6748;95585.51;;;;
2022/04/15 00:36:05;;;;;;;15.85;14.15;;;;;;;13.26;60.6748;95585.51;;;;
2022/04/15 00:37:06;;;;;;;15.85;14.15;;;;;;;13.26;60.6748;95585.51;;;;
2022/04/15 00:38:07;;;;;;;22;19.7;;;;;;;13.17;61.49512;95593.75;;;;
2022/04/15 00:39:08;;;;;;;22;19.7;;;;;;;13.17;61.49512;95593.75;;;;
2022/04/15 00:40:10;;;;;;;22;19.7;;;;;;;13.17;61.49512;95593.75;;;;
2022/04/15 00:41:11;;;;;;;22;19.7;;;;;;;13.17;61.49512;95593.75;;;;
2022/04/15 00:42:13;;;;;;;22;19.7;;;;;;;13.17;61.49512;95593.75;;;;
2022/04/15 00:43:14;;;;;;;22;19.7;;;;;;;13.17;61.49512;95593.75;;;;
2022/04/15 00:44:14;;;;;;;22;19.7;;;;;;;13.17;61.49512;95593.75;;;;
2022/04/15 00:45:15;;;;;;;22;19.7;;;;;;;13.17;61.49512;95593.75;;;;
2022/04/15 00:46:15;;;;;;;22;19.7;;;;;;;13.17;61.49512;95593.75;;;;
2022/04/15 00:47:16;;;;;;;22;19.7;;;;;;;13.17;61.49512;95593.75;;;;
2022/04/15 00:48:26;;;;;;;26.85;20.75;;;;;;;13.09;62.80078;95607.72;;;;
2022/04/15 00:49:28;;;;;;;26.85;20.75;;;;;;;13.09;62.80078;95607.72;;;;
2022/04/15 00:50:28;;;;;;;26.85;20.75;;;;;;;13.09;62.80078;95607.72;;;;
2022/04/15 00:51:31;;;;;;;26.85;20.75;;;;;;;13.09;62.80078;95607.72;;;;
2022/04/15 00:52:34;;;;;;;26.85;20.75;;;;;;;13.09;62.80078;95607.72;;;;
2022/04/15 00:53:39;;;;;;;26.85;20.75;;;;;;;13.09;62.80078;95607.72;;;;
2022/04/15 00:54:42;;;;;;;26.85;20.75;;;;;;;13.09;62.80078;95607.72;;;;
2022/04/15 00:55:44;;;;;;;26.85;20.75;;;;;;;13.09;62.80078;95607.72;;;;
2022/04/15 00:56:46;;;;;;;26.85;20.75;;;;;;;13.09;62.80078;95607.72;;;;
2022/04/15 00:57:50;;;;;;;26.85;20.75;;;;;;;13.09;62.80078;95607.72;;;;
2022/04/15 00:58:54;;;;;;;25.75;23;;;;;;;12.95;63.78516;95585.61;;;;
2022/04/15 00:59:58;;;;;;;25.75;23;;;;;;;12.95;63.78516;95585.61;;;;
2022/04/15 01:01:01;;;;;;;25.75;23;;;;;;;12.95;63.78516;95585.61;;;;
2022/04/15 01:02:03;;;;;;;25.75;23;;;;;;;12.95;63.78516;95585.61;;;;
2022/04/15 01:03:04;;;;;;;25.75;23;;;;;;;12.95;63.78516;95585.61;;;;
2022/04/15 01:04:06;;;;;;;25.75;23;;;;;;;12.95;63.78516;95585.61;;;;
2022/04/15 01:05:07;;;;;;;25.75;23;;;;;;;12.95;63.78516;95585.61;;;;
2022/04/15 01:06:10;;;;;;;25.75;23;;;;;;;12.95;63.78516;95585.61;;;;
2022/04/15 01:07:11;;;;;;;25.75;23;;;;;;;12.95;63.78516;95585.61;;;;
2022/04/15 01:08:17;;;;;;;25.75;23;;;;;;;12.95;63.78516;95585.61;;;;
2022/04/15 01:09:19;;;;;;;28.95;25.55;;;;;;;12.8;67.01953;95596.15;;;;
2022/04/15 01:10:22;;;;;;;28.95;25.55;;;;;;;12.8;67.01953;95596.15;;;;
2022/04/15 01:11:23;;;;;;;28.95;25.55;;;;;;;12.8;67.01953;95596.15;;;;
2022/04/15 01:12:27;;;;;;;28.95;25.55;;;;;;;12.8;67.01953;95596.15;;;;
2022/04/15 01:13:29;;;;;;;28.95;25.55;;;;;;;12.8;67.01953;95596.15;;;;
2022/04/15 01:14:33;;;;;;;28.95;25.55;;;;;;;12.8;67.01953;95596.15;;;;
2022/04/15 01:15:34;;;;;;;28.95;25.55;;;;;;;12.8;67.01953;95596.15;;;;
2022/04/15 01:16:35;;;;;;;28.95;25.55;;;;;;;12.8;67.01953;95596.15;;;;
2022/04/15 01:17:35;;;;;;;28.95;25.55;;;;;;;12.8;67.01953;95596.15;;;;
2022/04/15 01:18:37;;;;;;;28.95;25.55;;;;;;;12.8;67.01953;95596.15;;;;
2022/04/15 01:19:39;;;;;;;28.95;25.55;;;;;;;12.8;67.01953;95596.15;;;;
2022/04/15 01:20:39;;;;;;;26.3;23.15;;;;;;;12.68;70.3291;95583.6;;;;
2022/04/15 01:21:42;;;;;;;26.3;23.15;;;;;;;12.68;70.3291;95583.6;;;;
2022/04/15 01:22:44;;;;;;;26.3;23.15;;;;;;;12.68;70.3291;95583.6;;;;
2022/04/15 01:23:47;;;;;;;26.3;23.15;;;;;;;12.68;70.3291;95583.6;;;;
2022/04/15 01:24:47;;;;;;;26.3;23.15;;;;;;;12.68;70.3291;95583.6;;;;
2022/04/15 01:25:48;;;;;;;26.3;23.15;;;;;;;12.68;70.3291;95583.6;;;;
2022/04/15 01:26:48;;;;;;;26.3;23.15;;;;;;;12.68;70.3291;95583.6;;;;
2022/04/15 01:27:50;;;;;;;26.3;23.15;;;;;;;12.68;70.3291;95583.6;;;;
2022/04/15 01:28:50;;;;;;;26.3;23.15;;;;;;;12.68;70.3291;95583.6;;;;
2022/04/15 01:29:50;;;;;;;26.3;23.15;;;;;;;12.68;70.3291;95583.6;;;;
2022/04/15 01:30:51;;;;;;;25.75;21.95;;;;;;;12.58;72.90625;95600.89;;;;
2022/04/15 01:31:52;;;;;;;25.75;21.95;;;;;;;12.58;72.90625;95600.89;;;;
2022/04/15 01:32:52;;;;;;;25.75;21.95;;;;;;;12.58;72.90625;95600.89;;;;
2022/04/15 01:33:53;;;;;;;25.75;21.95;;;;;;;12.58;72.90625;95600.89;;;;
2022/04/15 01:34:53;;;;;;;25.75;21.95;;;;;;;12.58;72.90625;95600.89;;;;
2022/04/15 01:35:54;;;;;;;25.75;21.95;;;;;;;12.58;72.90625;95600.89;;;;
2022/04/15 01:36:54;;;;;;;25.75;21.95;;;;;;;12.58;72.90625;95600.89;;;;
2022/04/15 01:37:56;;;;;;;25.75;21.95;;;;;;;12.58;72.90625;95600.89;;;;
2022/04/15 01:38:57;;;;;;;25.75;21.95;;;;;;;12.58;72.90625;95600.89;;;;
2022/04/15 01:39:58;;;;;;;25.75;21.95;;;;;;;12.58;72.90625;95600.89;;;;
2022/04/15 01:40:58;;;;;;;25.75;21.95;;;;;;;12.58;72.90625;95600.89;;;;
2022/04/15 01:41:59;;;;;;;22.74999;20.4;;;;;;;12.5;75.34473;95591.77;;;;
2022/04/15 01:42:59;;;;;;;22.74999;20.4;;;;;;;12.5;75.34473;95591.77;;;;
2022/04/15 01:44:00;;;;;;;22.74999;20.4;;;;;;;12.5;75.34473;95591.77;;;;
2022/04/15 01:45:06;;;;;;;22.74999;20.4;;;;;;;12.5;75.34473;95591.77;;;;
2022/04/15 01:46:08;;;;;;;22.74999;20.4;;;;;;;12.5;75.34473;95591.77;;;;
2022/04/15 01:47:08;;;;;;;22.74999;20.4;;;;;;;12.5;75.34473;95591.77;;;;
2022/04/15 01:48:11;;;;;;;22.74999;20.4;;;;;;;12.5;75.34473;95591.77;;;;
2022/04/15 01:49:11;;;;;;;22.74999;20.4;;;;;;;12.5;75.34473;95591.77;;;;
2022/04/15 01:50:12;;;;;;;22.74999;20.4;;;;;;;12.5;75.34473;95591.77;;;;
2022/04/15 01:51:12;;;;;;;22.74999;20.4;;;;;;;12.5;75.34473;95591.77;;;;
2022/04/15 01:52:13;;;;;;;26.85;21.35;;;;;;;12.47;77.27344;95577.36;;;;
2022/04/15 01:53:13;;;;;;;26.85;21.35;;;;;;;12.47;77.27344;95577.36;;;;
2022/04/15 01:54:14;;;;;;;26.85;21.35;;;;;;;12.47;77.27344;95577.36;;;;
2022/04/15 01:55:14;;;;;;;26.85;21.35;;;;;;;12.47;77.27344;95577.36;;;;
2022/04/15 01:56:15;;;;;;;26.85;21.35;;;;;;;12.47;77.27344;95577.36;;;;
2022/04/15 01:57:15;;;;;;;26.85;21.35;;;;;;;12.47;77.27344;95577.36;;;;
2022/04/15 01:58:16;;;;;;;26.85;21.35;;;;;;;12.47;77.27344;95577.36;;;;
2022/04/15 01:59:16;;;;;;;26.85;21.35;;;;;;;12.47;77.27344;95577.36;;;;
2022/04/15 02:00:17;;;;;;;26.85;21.35;;;;;;;12.47;77.27344;95577.36;;;;
2022/04/15 02:01:18;;;;;;;26.85;21.35;;;;;;;12.47;77.27344;95577.36;;;;
2022/04/15 02:02:18;;;;;;;26.85;21.35;;;;;;;12.47;77.27344;95577.36;;;;
2022/04/15 02:03:19;;;;;;;24.25;21.7;;;;;;;12.45;78.94336;95580;;;;
2022/04/15 02:04:19;;;;;;;24.25;21.7;;;;;;;12.45;78.94336;95580;;;;
2022/04/15 02:05:20;;;;;;;24.25;21.7;;;;;;;12.45;78.94336;95580;;;;
2022/04/15 02:06:21;;;;;;;24.25;21.7;;;;;;;12.45;78.94336;95580;;;;
2022/04/15 02:07:21;;;;;;;24.25;21.7;;;;;;;12.45;78.94336;95580;;;;
2022/04/15 02:08:22;;;;;;;24.25;21.7;;;;;;;12.45;78.94336;95580;;;;
2022/04/15 02:09:22;;;;;;;24.25;21.7;;;;;;;12.45;78.94336;95580;;;;
2022/04/15 02:10:23;;;;;;;24.25;21.7;;;;;;;12.45;78.94336;95580;;;;
2022/04/15 02:11:23;;;;;;;24.25;21.7;;;;;;;12.45;78.94336;95580;;;;
2022/04/15 02:12:24;;;;;;;24.25;21.7;;;;;;;12.45;78.94336;95580;;;;
2022/04/15 02:13:24;;;;;;;23.9;21.25;;;;;;;12.42;80.55762;95581.33;;;;
2022/04/15 02:14:25;;;;;;;23.9;21.25;;;;;;;12.42;80.55762;95581.33;;;;
2022/04/15 02:15:25;;;;;;;23.9;21.25;;;;;;;12.42;80.55762;95581.33;;;;
2022/04/15 02:16:26;;;;;;;23.9;21.25;;;;;;;12.42;80.55762;95581.33;;;;
2022/04/15 02:17:27;;;;;;;23.9;21.25;;;;;;;12.42;80.55762;95581.33;;;;
2022/04/15 02:18:27;;;;;;;23.9;21.25;;;;;;;12.42;80.55762;95581.33;;;;
2022/04/15 02:19:28;;;;;;;23.9;21.25;;;;;;;12.42;80.55762;95581.33;;;;
2022/04/15 02:20:28;;;;;;;23.9;21.25;;;;;;;12.42;80.55762;95581.33;;;;
2022/04/15 02:21:29;;;;;;;23.9;21.25;;;;;;;12.42;80.55762;95581.33;;;;
2022/04/15 02:22:29;;;;;;;23.9;21.25;;;;;;;12.42;80.55762;95581.33;;;;
2022/04/15 02:23:30;;;;;;;23.9;21.25;;;;;;;12.42;80.55762;95581.33;;;;
2022/04/15 02:24:30;;;;;;;23.25;20.75;;;;;;;12.4;82.20605;95601.58;;;;
2022/04/15 02:25:31;;;;;;;23.25;20.75;;;;;;;12.4;82.20605;95601.58;;;;
2022/04/15 02:26:31;;;;;;;23.25;20.75;;;;;;;12.4;82.20605;95601.58;;;;
2022/04/15 02:27:32;;;;;;;23.25;20.75;;;;;;;12.4;82.20605;95601.58;;;;
2022/04/15 02:28:32;;;;;;;23.25;20.75;;;;;;;12.4;82.20605;95601.58;;;;
2022/04/15 02:29:34;;;;;;;23.25;20.75;;;;;;;12.4;82.20605;95601.58;;;;
2022/04/15 02:30:35;;;;;;;23.25;20.75;;;;;;;12.4;82.20605;95601.58;;;;
2022/04/15 02:31:35;;;;;;;23.25;20.75;;;;;;;12.4;82.20605;95601.58;;;;
2022/04/15 02:32:36;;;;;;;23.25;20.75;;;;;;;12.4;82.20605;95601.58;;;;
2022/04/15 02:33:37;;;;;;;23.25;20.75;;;;;;;12.4;82.20605;95601.58;;;;
2022/04/15 02:34:37;;;;;;;25.1;22.05;;;;;;;12.31;85.4873;95609.36;;;;
2022/04/15 02:35:37;;;;;;;25.1;22.05;;;;;;;12.31;85.4873;95609.36;;;;
2022/04/15 02:36:38;;;;;;;25.1;22.05;;;;;;;12.31;85.4873;95609.36;;;;
2022/04/15 02:37:39;;;;;;;25.1;22.05;;;;;;;12.31;85.4873;95609.36;;;;
2022/04/15 02:38:39;;;;;;;25.1;22.05;;;;;;;12.31;85.4873;95609.36;;;;
2022/04/15 02:39:39;;;;;;;25.1;22.05;;;;;;;12.31;85.4873;95609.36;;;;
2022/04/15 02:40:40;;;;;;;25.1;22.05;;;;;;;12.31;85.4873;95609.36;;;;
2022/04/15 02:41:40;;;;;;;25.1;22.05;;;;;;;12.31;85.4873;95609.36;;;;
2022/04/15 02:42:41;;;;;;;25.1;22.05;;;;;;;12.31;85.4873;95609.36;;;;
2022/04/15 02:43:42;;;;;;;25.1;22.05;;;;;;;12.31;85.4873;95609.36;;;;
2022/04/15 02:44:43;;;;;;;25.1;22.05;;;;;;;12.31;85.4873;95609.36;;;;
2022/04/15 02:45:43;;;;;;;27.05;22.85;;;;;;;12.3;88.60156;95616.68;;;;
2022/04/15 02:46:44;;;;;;;27.05;22.85;;;;;;;12.3;88.60156;95616.68;;;;
2022/04/15 02:47:44;;;;;;;27.05;22.85;;;;;;;12.3;88.60156;95616.68;;;;
2022/04/15 02:48:45;;;;;;;27.05;22.85;;;;;;;12.3;88.60156;95616.68;;;;
2022/04/15 02:49:45;;;;;;;27.05;22.85;;;;;;;12.3;88.60156;95616.68;;;;
2022/04/15 02:50:46;;;;;;;27.05;22.85;;;;;;;12.3;88.60156;95616.68;;;;
2022/04/15 02:51:46;;;;;;;27.05;22.85;;;;;;;12.3;88.60156;95616.68;;;;
2022/04/15 02:52:48;;;;;;;27.05;22.85;;;;;;;12.3;88.60156;95616.68;;;;
2022/04/15 02:53:50;;;;;;;27.05;22.85;;;;;;;12.3;88.60156;95616.68;;;;
2022/04/15 02:54:50;;;;;;;27.05;22.85;;;;;;;12.3;88.60156;95616.68;;;;
2022/04/15 02:55:50;;;;;;;27.05;22.85;;;;;;;12.3;88.60156;95616.68;;;;
2022/04/15 02:56:51;;;;;;;27.75;24.65;;;;;;;12.37;91.38281;95620.6;;;;
2022/04/15 02:57:52;;;;;;;27.75;24.65;;;;;;;12.37;91.38281;95620.6;;;;
2022/04/15 02:58:53;;;;;;;27.75;24.65;;;;;;;12.37;91.38281;95620.6;;;;
2022/04/15 02:59:53;;;;;;;27.75;24.65;;;;;;;12.37;91.38281;95620.6;;;;
2022/04/15 03:00:54;;;;;;;27.75;24.65;;;;;;;12.37;91.38281;95620.6;;;;
2022/04/15 03:01:54;;;;;;;27.75;24.65;;;;;;;12.37;91.38281;95620.6;;;;
2022/04/15 03:02:54;;;;;;;27.75;24.65;;;;;;;12.37;91.38281;95620.6;;;;
2022/04/15 03:03:55;;;;;;;27.75;24.65;;;;;;;12.37;91.38281;95620.6;;;;
2022/04/15 03:04:55;;;;;;;27.75;24.65;;;;;;;12.37;91.38281;95620.6;;;;
2022/04/15 03:05:56;;;;;;;27.75;24.65;;;;;;;12.37;91.38281;95620.6;;;;
2022/04/15 03:06:57;;;;;;;30;26.05;;;;;;;12.4;93.625;95634.07;;;;
2022/04/15 03:07:57;;;;;;;30;26.05;;;;;;;12.4;93.625;95634.07;;;;
2022/04/15 03:08:59;;;;;;;30;26.05;;;;;;;12.4;93.625;95634.07;;;;
2022/04/15 03:09:59;;;;;;;30;26.05;;;;;;;12.4;93.625;95634.07;;;;
2022/04/15 03:11:00;;;;;;;30;26.05;;;;;;;12.4;93.625;95634.07;;;;
2022/04/15 03:12:01;;;;;;;30;26.05;;;;;;;12.4;93.625;95634.07;;;;
2022/04/15 03:13:01;;;;;;;30;26.05;;;;;;;12.4;93.625;95634.07;;;;
2022/04/15 03:14:03;;;;;;;30;26.05;;;;;;;12.4;93.625;95634.07;;;;
2022/04/15 03:15:05;;;;;;;30;26.05;;;;;;;12.4;93.625;95634.07;;;;
2022/04/15 03:16:07;;;;;;;30;26.05;;;;;;;12.4;93.625;95634.07;;;;
2022/04/15 03:17:08;;;;;;;30;26.05;;;;;;;12.4;93.625;95634.07;;;;
2022/04/15 03:18:08;;;;;;;30.85;27.05;;;;;;;12.43;95.78809;95628.2;;;;
2022/04/15 03:19:09;;;;;;;30.85;27.05;;;;;;;12.43;95.78809;95628.2;;;;
2022/04/15 03:20:10;;;;;;;30.85;27.05;;;;;;;12.43;95.78809;95628.2;;;;
2022/04/15 03:21:11;;;;;;;30.85;27.05;;;;;;;12.43;95.78809;95628.2;;;;
2022/04/15 03:22:11;;;;;;;30.85;27.05;;;;;;;12.43;95.78809;95628.2;;;;
2022/04/15 03:23:12;;;;;;;30.85;27.05;;;;;;;12.43;95.78809;95628.2;;;;
2022/04/15 03:24:12;;;;;;;30.85;27.05;;;;;;;12.43;95.78809;95628.2;;;;
2022/04/15 03:25:13;;;;;;;30.85;27.05;;;;;;;12.43;95.78809;95628.2;;;;
2022/04/15 03:26:15;;;;;;;30.85;27.05;;;;;;;12.43;95.78809;95628.2;;;;
2022/04/15 03:27:15;;;;;;;30.85;27.05;;;;;;;12.43;95.78809;95628.2;;;;
2022/04/15 03:28:17;;;;;;;33.8;28.4;;;;;;;12.4;97.46875;95620.53;;;;
2022/04/15 03:29:17;;;;;;;33.8;28.4;;;;;;;12.4;97.46875;95620.53;;;;
2022/04/15 03:30:18;;;;;;;33.8;28.4;;;;;;;12.4;97.46875;95620.53;;;;
2022/04/15 03:31:18;;;;;;;33.8;28.4;;;;;;;12.4;97.46875;95620.53;;;;
2022/04/15 03:32:19;;;;;;;33.8;28.4;;;;;;;12.4;97.46875;95620.53;;;;
2022/04/15 03:33:20;;;;;;;33.8;28.4;;;;;;;12.4;97.46875;95620.53;;;;
2022/04/15 03:34:21;;;;;;;33.8;28.4;;;;;;;12.4;97.46875;95620.53;;;;
2022/04/15 03:35:21;;;;;;;33.8;28.4;;;;;;;12.4;97.46875;95620.53;;;;
2022/04/15 03:36:22;;;;;;;33.8;28.4;;;;;;;12.4;97.46875;95620.53;;;;
2022/04/15 03:37:22;;;;;;;33.8;28.4;;;;;;;12.4;97.46875;95620.53;;;;
2022/04/15 03:38:24;;;;;;;33.8;28.4;;;;;;;12.4;97.46875;95620.53;;;;
2022/04/15 03:39:24;;;;;;;31.1;27.75;;;;;;;12.4;100;95618.76;;;;
2022/04/15 03:40:25;;;;;;;31.1;27.75;;;;;;;12.4;100;95618.76;;;;
2022/04/15 03:41:25;;;;;;;31.1;27.75;;;;;;;12.4;100;95618.76;;;;
2022/04/15 03:42:26;;;;;;;31.1;27.75;;;;;;;12.4;100;95618.76;;;;
2022/04/15 03:43:26;;;;;;;31.1;27.75;;;;;;;12.4;100;95618.76;;;;
2022/04/15 03:44:27;;;;;;;31.1;27.75;;;;;;;12.4;100;95618.76;;;;
2022/04/15 03:45:27;;;;;;;31.1;27.75;;;;;;;12.4;100;95618.76;;;;
2022/04/15 03:46:28;;;;;;;31.1;27.75;;;;;;;12.4;100;95618.76;;;;
2022/04/15 03:47:28;;;;;;;31.1;27.75;;;;;;;12.4;100;95618.76;;;;
2022/04/15 03:48:29;;;;;;;31.1;27.75;;;;;;;12.4;100;95618.76;;;;
2022/04/15 03:49:29;;;;;;;31.85;27.65;;;;;;;12.4;100;95618.76;;;;
2022/04/15 03:50:30;;;;;;;31.85;27.65;;;;;;;12.4;100;95618.76;;;;
2022/04/15 03:51:31;;;;;;;31.85;27.65;;;;;;;12.4;100;95618.76;;;;
2022/04/15 03:52:31;;;;;;;31.85;27.65;;;;;;;12.4;100;95618.76;;;;
2022/04/15 03:53:36;;;;;;;31.85;27.65;;;;;;;12.4;100;95618.76;;;;
2022/04/15 03:54:37;;;;;;;31.85;27.65;;;;;;;12.4;100;95618.76;;;;
2022/04/15 03:55:37;;;;;;;31.85;27.65;;;;;;;12.4;100;95618.76;;;;
2022/04/15 03:56:38;;;;;;;31.85;27.65;;;;;;;12.4;100;95618.76;;;;
2022/04/15 03:57:38;;;;;;;31.85;27.65;;;;;;;12.4;100;95618.76;;;;
2022/04/15 03:58:39;;;;;;;31.85;27.65;;;;;;;12.4;100;95618.76;;;;
2022/04/15 03:59:40;;;;;;;31.85;27.65;;;;;;;12.4;100;95618.76;;;;
2022/04/15 04:00:41;;;;;;;39;31.45;;;;;;;12.38;100;95622.65;;;;
2022/04/15 04:01:42;;;;;;;39;31.45;;;;;;;12.38;100;95622.65;;;;
2022/04/15 04:02:42;;;;;;;39;31.45;;;;;;;12.38;100;95622.65;;;;
2022/04/15 04:03:43;;;;;;;39;31.45;;;;;;;12.38;100;95622.65;;;;
2022/04/15 04:04:44;;;;;;;39;31.45;;;;;;;12.38;100;95622.65;;;;
2022/04/15 04:05:44;;;;;;;39;31.45;;;;;;;12.38;100;95622.65;;;;
2022/04/15 04:06:45;;;;;;;39;31.45;;;;;;;12.38;100;95622.65;;;;
2022/04/15 04:07:45;;;;;;;39;31.45;;;;;;;12.38;100;95622.65;;;;
2022/04/15 04:08:49;;;;;;;39;31.45;;;;;;;12.38;100;95622.65;;;;
2022/04/15 04:09:49;;;;;;;39;31.45;;;;;;;12.38;100;95622.65;;;;
2022/04/15 04:10:50;;;;;;;41.15;34.14999;;;;;;;12.37;100;95628.72;;;;
2022/04/15 04:11:50;;;;;;;41.15;34.14999;;;;;;;12.37;100;95628.72;;;;
2022/04/15 04:12:51;;;;;;;41.15;34.14999;;;;;;;12.37;100;95628.72;;;;
2022/04/15 04:13:52;;;;;;;41.15;34.14999;;;;;;;12.37;100;95628.72;;;;
2022/04/15 04:14:52;;;;;;;41.15;34.14999;;;;;;;12.37;100;95628.72;;;;
2022/04/15 04:15:53;;;;;;;41.15;34.14999;;;;;;;12.37;100;95628.72;;;;
2022/04/15 04:16:53;;;;;;;41.15;34.14999;;;;;;;12.37;100;95628.72;;;;
2022/04/15 04:17:55;;;;;;;41.15;34.14999;;;;;;;12.37;100;95628.72;;;;
2022/04/15 04:18:56;;;;;;;41.15;34.14999;;;;;;;12.37;100;95628.72;;;;
2022/04/15 04:19:57;;;;;;;41.15;34.14999;;;;;;;12.37;100;95628.72;;;;
2022/04/15 04:20:57;;;;;;;41.15;34.14999;;;;;;;12.37;100;95628.72;;;;
2022/04/15 04:21:58;;;;;;;50.00001;37.9;;;;;;;12.41;100;95636.11;;;;
2022/04/15 04:22:58;;;;;;;50.00001;37.9;;;;;;;12.41;100;95636.11;;;;
2022/04/15 04:23:59;;;;;;;50.00001;37.9;;;;;;;12.41;100;95636.11;;;;
2022/04/15 04:24:59;;;;;;;50.00001;37.9;;;;;;;12.41;100;95636.11;;;;
2022/04/15 04:26:01;;;;;;;50.00001;37.9;;;;;;;12.41;100;95636.11;;;;
2022/04/15 04:27:02;;;;;;;50.00001;37.9;;;;;;;12.41;100;95636.11;;;;
2022/04/15 04:28:03;;;;;;;50.00001;37.9;;;;;;;12.41;100;95636.11;;;;
2022/04/15 04:29:04;;;;;;;50.00001;37.9;;;;;;;12.41;100;95636.11;;;;
2022/04/15 04:30:04;;;;;;;50.00001;37.9;;;;;;;12.41;100;95636.11;;;;
2022/04/15 04:31:07;;;;;;;50.00001;37.9;;;;;;;12.41;100;95636.11;;;;
2022/04/15 04:32:08;;;;;;;52.85;41.4;;;;;;;12.45;100;95643.13;;;;
2022/04/15 04:33:08;;;;;;;52.85;41.4;;;;;;;12.45;100;95643.13;;;;
2022/04/15 04:34:09;;;;;;;52.85;41.4;;;;;;;12.45;100;95643.13;;;;
2022/04/15 04:35:09;;;;;;;52.85;41.4;;;;;;;12.45;100;95643.13;;;;
2022/04/15 04:36:10;;;;;;;52.85;41.4;;;;;;;12.45;100;95643.13;;;;
2022/04/15 04:37:10;;;;;;;52.85;41.4;;;;;;;12.45;100;95643.13;;;;
2022/04/15 04:38:11;;;;;;;52.85;41.4;;;;;;;12.45;100;95643.13;;;;
2022/04/15 04:39:11;;;;;;;52.85;41.4;;;;;;;12.45;100;95643.13;;;;
2022/04/15 04:40:12;;;;;;;52.85;41.4;;;;;;;12.45;100;95643.13;;;;
2022/04/15 04:41:14;;;;;;;52.85;41.4;;;;;;;12.45;100;95643.13;;;;
2022/04/15 04:42:14;;;;;;;52.85;41.4;;;;;;;12.45;100;95643.13;;;;
2022/04/15 04:43:15;;;;;;;59.4;44.25;;;;;;;12.47;100;95642.47;;;;
2022/04/15 04:44:15;;;;;;;59.4;44.25;;;;;;;12.47;100;95642.47;;;;
2022/04/15 04:45:16;;;;;;;59.4;44.25;;;;;;;12.47;100;95642.47;;;;
2022/04/15 04:46:18;;;;;;;59.4;44.25;;;;;;;12.47;100;95642.47;;;;
2022/04/15 04:47:18;;;;;;;59.4;44.25;;;;;;;12.47;100;95642.47;;;;
2022/04/15 04:48:20;;;;;;;59.4;44.25;;;;;;;12.47;100;95642.47;;;;
2022/04/15 04:49:21;;;;;;;59.4;44.25;;;;;;;12.47;100;95642.47;;;;
2022/04/15 04:50:22;;;;;;;59.4;44.25;;;;;;;12.47;100;95642.47;;;;
2022/04/15 04:51:23;;;;;;;59.4;44.25;;;;;;;12.47;100;95642.47;;;;
2022/04/15 04:52:23;;;;;;;59.4;44.25;;;;;;;12.47;100;95642.47;;;;
2022/04/15 04:53:24;;;;;;;65.34998;47.75;;;;;;;12.41;100;95659.69;;;;
2022/04/15 04:54:25;;;;;;;65.34998;47.75;;;;;;;12.41;100;95659.69;;;;
2022/04/15 04:55:25;;;;;;;65.34998;47.75;;;;;;;12.41;100;95659.69;;;;
2022/04/15 04:56:26;;;;;;;65.34998;47.75;;;;;;;12.41;100;95659.69;;;;
2022/04/15 04:57:27;;;;;;;65.34998;47.75;;;;;;;12.41;100;95659.69;;;;
2022/04/15 04:58:27;;;;;;;65.34998;47.75;;;;;;;12.41;100;95659.69;;;;
2022/04/15 04:59:29;;;;;;;65.34998;47.75;;;;;;;12.41;100;95659.69;;;;
2022/04/15 05:00:30;;;;;;;65.34998;47.75;;;;;;;12.41;100;95659.69;;;;
2022/04/15 05:01:30;;;;;;;65.34998;47.75;;;;;;;12.41;100;95659.69;;;;
2022/04/15 05:02:31;;;;;;;65.34998;47.75;;;;;;;12.41;100;95659.69;;;;
2022/04/15 05:03:31;;;;;;;65.34998;47.75;;;;;;;12.41;100;95659.69;;;;
2022/04/15 05:04:32;;;;;;;68.39999;50.9;;;;;;;12.45;100;95673.05;;;;
2022/04/15 05:05:32;;;;;;;68.39999;50.9;;;;;;;12.45;100;95673.05;;;;
2022/04/15 05:06:32;;;;;;;68.39999;50.9;;;;;;;12.45;100;95673.05;;;;
2022/04/15 05:07:33;;;;;;;68.39999;50.9;;;;;;;12.45;100;95673.05;;;;
2022/04/15 05:08:34;;;;;;;68.39999;50.9;;;;;;;12.45;100;95673.05;;;;
2022/04/15 05:09:34;;;;;;;68.39999;50.9;;;;;;;12.45;100;95673.05;;;;
2022/04/15 05:10:35;;;;;;;68.39999;50.9;;;;;;;12.45;100;95673.05;;;;
2022/04/15 05:11:35;;;;;;;68.39999;50.9;;;;;;;12.45;100;95673.05;;;;
2022/04/15 05:12:36;;;;;;;68.39999;50.9;;;;;;;12.45;100;95673.05;;;;
2022/04/15 05:13:36;;;;;;;68.39999;50.9;;;;;;;12.45;100;95673.05;;;;
2022/04/15 05:14:37;;;;;;;73.2;53.25;;;;;;;12.63;100;95676.42;;;;
2022/04/15 05:15:37;;;;;;;73.2;53.25;;;;;;;12.63;100;95676.42;;;;
2022/04/15 05:16:38;;;;;;;73.2;53.25;;;;;;;12.63;100;95676.42;;;;
2022/04/15 05:17:38;;;;;;;73.2;53.25;;;;;;;12.63;100;95676.42;;;;
2022/04/15 05:18:39;;;;;;;73.2;53.25;;;;;;;12.63;100;95676.42;;;;
2022/04/15 05:19:40;;;;;;;73.2;53.25;;;;;;;12.63;100;95676.42;;;;
2022/04/15 05:20:40;;;;;;;73.2;53.25;;;;;;;12.63;100;95676.42;;;;
2022/04/15 05:21:41;;;;;;;73.2;53.25;;;;;;;12.63;100;95676.42;;;;
2022/04/15 05:22:41;;;;;;;73.2;53.25;;;;;;;12.63;100;95676.42;;;;
2022/04/15 05:23:42;;;;;;;73.2;53.25;;;;;;;12.63;100;95676.42;;;;
2022/04/15 05:24:42;;;;;;;73.2;53.25;;;;;;;12.63;100;95676.42;;;;
2022/04/15 05:25:43;;;;;;;71.20001;52.4;;;;;;;12.81;100;95685.33;;;;
2022/04/15 05:26:43;;;;;;;71.20001;52.4;;;;;;;12.81;100;95685.33;;;;
2022/04/15 05:27:44;;;;;;;71.20001;52.4;;;;;;;12.81;100;95685.33;;;;
2022/04/15 05:28:44;;;;;;;71.20001;52.4;;;;;;;12.81;100;95685.33;;;;
2022/04/15 05:29:45;;;;;;;71.20001;52.4;;;;;;;12.81;100;95685.33;;;;
2022/04/15 05:30:45;;;;;;;71.20001;52.4;;;;;;;12.81;100;95685.33;;;;
2022/04/15 05:31:46;;;;;;;71.20001;52.4;;;;;;;12.81;100;95685.33;;;;
2022/04/15 05:32:46;;;;;;;71.20001;52.4;;;;;;;12.81;100;95685.33;;;;
2022/04/15 05:33:47;;;;;;;71.20001;52.4;;;;;;;12.81;100;95685.33;;;;
2022/04/15 05:34:47;;;;;;;71.20001;52.4;;;;;;;12.81;100;95685.33;;;;
2022/04/15 05:35:47;;;;;;;71.20001;52.4;;;;;;;12.81;100;95685.33;;;;
2022/04/15 05:36:48;;;;;;;64.24998;50.94999;;;;;;;12.93;100;95699.27;;;;
2022/04/15 05:37:48;;;;;;;64.24998;50.94999;;;;;;;12.93;100;95699.27;;;;
2022/04/15 05:38:49;;;;;;;64.24998;50.94999;;;;;;;12.93;100;95699.27;;;;
2022/04/15 05:39:49;;;;;;;64.24998;50.94999;;;;;;;12.93;100;95699.27;;;;
2022/04/15 05:40:50;;;;;;;64.24998;50.94999;;;;;;;12.93;100;95699.27;;;;
2022/04/15 05:41:51;;;;;;;64.24998;50.94999;;;;;;;12.93;100;95699.27;;;;
2022/04/15 05:42:51;;;;;;;64.24998;50.94999;;;;;;;12.93;100;95699.27;;;;
2022/04/15 05:43:51;;;;;;;64.24998;50.94999;;;;;;;12.93;100;95699.27;;;;
2022/04/15 05:44:52;;;;;;;64.24998;50.94999;;;;;;;12.93;100;95699.27;;;;
2022/04/15 05:45:52;;;;;;;64.24998;50.94999;;;;;;;12.93;100;95699.27;;;;
2022/04/15 05:46:53;;;;;;;65.39999;50.95;;;;;;;12.97;100;95704.49;;;;
2022/04/15 05:47:57;;;;;;;65.39999;50.95;;;;;;;12.97;100;95704.49;;;;